sensor_id;sensor_type;location;lat;lon;timestamp;P1;durP1;ratioP1;P2;durP2;ratioP2
10729;SDS011;5416;59.258;18.128;2024-03-08T00:01:52;2.90;;;2.80;;
10729;SDS011;5416;59.258;18.128;2024-03-08T00:04:19;3.30;;;3.20;;
10729;SDS011;5416;59.258;18.128;2024-03-08T00:06:46;3.22;;;3.13;;
10729;SDS011;5416;59.258;18.128;2024-03-08T00:09:15;2.63;;;2.53;;
10729;SDS011;5416;59.258;18.128;2024-03-08T00:11:42;3.30;;;3.20;;
10729;SDS011;5416;59.258;18.128;2024-03-08T00:14:09;2.80;;;2.70;;
10729;SDS011;5416;59.258;18.128;2024-03-08T00:16:37;2.70;;;2.60;;
10729;SDS011;5416;59.258;18.128;2024-03-08T00:19:08;3.28;;;3.17;;
10729;SDS011;5416;59.258;18.128;2024-03-08T00:21:36;2.65;;;2.55;;
10729;SDS011;5416;59.258;18.128;2024-03-08T00:24:03;3.00;;;2.90;;
10729;SDS011;5416;59.258;18.128;2024-03-08T00:26:32;3.03;;;2.92;;
10729;SDS011;5416;59.258;18.128;2024-03-08T00:28:59;2.90;;;2.80;;
10729;SDS011;5416;59.258;18.128;2024-03-08T00:31:27;3.50;;;3.40;;
10729;SDS011;5416;59.258;18.128;2024-03-08T00:33:56;2.55;;;2.45;;
10729;SDS011;5416;59.258;18.128;2024-03-08T00:36:23;3.13;;;3.03;;
10729;SDS011;5416;59.258;18.128;2024-03-08T00:38:50;3.40;;;3.30;;
10729;SDS011;5416;59.258;18.128;2024-03-08T00:41:17;2.83;;;2.73;;
10729;SDS011;5416;59.258;18.128;2024-03-08T00:43:46;3.40;;;3.30;;
10729;SDS011;5416;59.258;18.128;2024-03-08T00:46:14;2.47;;;2.38;;
10729;SDS011;5416;59.258;18.128;2024-03-08T00:48:42;3.10;;;3.00;;
10729;SDS011;5416;59.258;18.128;2024-03-08T00:51:10;3.28;;;3.17;;
10729;SDS011;5416;59.258;18.128;2024-03-08T00:53:37;2.73;;;2.63;;
10729;SDS011;5416;59.258;18.128;2024-03-08T00:56:04;3.00;;;2.90;;
10729;SDS011;5416;59.258;18.128;2024-03-08T00:58:33;2.80;;;2.70;;
10729;SDS011;5416;59.258;18.128;2024-03-08T01:01:02;2.83;;;2.73;;
10729;SDS011;5416;59.258;18.128;2024-03-08T01:03:30;3.30;;;3.20;;
10729;SDS011;5416;59.258;18.128;2024-03-08T01:05:58;2.58;;;2.47;;
10729;SDS011;5416;59.258;18.128;2024-03-08T01:08:26;2.85;;;2.75;;
10729;SDS011;5416;59.258;18.128;2024-03-08T01:10:53;2.67;;;2.58;;
10729;SDS011;5416;59.258;18.128;2024-03-08T01:13:21;3.10;;;3.00;;
10729;SDS011;5416;59.258;18.128;2024-03-08T01:15:48;3.25;;;3.15;;
10729;SDS011;5416;59.258;18.128;2024-03-08T01:18:16;2.80;;;2.70;;
10729;SDS011;5416;59.258;18.128;2024-03-08T01:20:45;3.28;;;3.17;;
10729;SDS011;5416;59.258;18.128;2024-03-08T01:23:12;3.10;;;3.00;;
10729;SDS011;5416;59.258;18.128;2024-03-08T01:25:39;3.03;;;2.92;;
10729;SDS011;5416;59.258;18.128;2024-03-08T01:28:09;3.60;;;3.50;;
10729;SDS011;5416;59.258;18.128;2024-03-08T01:30:38;3.03;;;2.92;;
10729;SDS011;5416;59.258;18.128;2024-03-08T01:33:05;3.15;;;3.05;;
10729;SDS011;5416;59.258;18.128;2024-03-08T01:35:34;3.60;;;3.50;;
10729;SDS011;5416;59.258;18.128;2024-03-08T01:38:01;2.92;;;2.83;;
10729;SDS011;5416;59.258;18.128;2024-03-08T01:40:30;2.90;;;2.80;;
10729;SDS011;5416;59.258;18.128;2024-03-08T01:42:57;2.80;;;2.70;;
10729;SDS011;5416;59.258;18.128;2024-03-08T01:45:41;3.35;;;3.25;;
10729;SDS011;5416;59.258;18.128;2024-03-08T01:48:08;3.45;;;3.35;;
10729;SDS011;5416;59.258;18.128;2024-03-08T01:50:38;2.85;;;2.75;;
10729;SDS011;5416;59.258;18.128;2024-03-08T01:53:06;3.70;;;3.60;;
10729;SDS011;5416;59.258;18.128;2024-03-08T01:55:35;2.90;;;2.80;;
10729;SDS011;5416;59.258;18.128;2024-03-08T01:58:03;2.90;;;2.80;;
10729;SDS011;5416;59.258;18.128;2024-03-08T02:00:31;3.65;;;3.55;;
10729;SDS011;5416;59.258;18.128;2024-03-08T02:02:59;3.10;;;3.00;;
10729;SDS011;5416;59.258;18.128;2024-03-08T02:05:26;3.10;;;3.00;;
10729;SDS011;5416;59.258;18.128;2024-03-08T02:07:55;3.00;;;2.90;;
10729;SDS011;5416;59.258;18.128;2024-03-08T02:10:23;3.10;;;3.00;;
10729;SDS011;5416;59.258;18.128;2024-03-08T02:12:50;3.13;;;3.03;;
10729;SDS011;5416;59.258;18.128;2024-03-08T02:15:17;3.10;;;3.00;;
10729;SDS011;5416;59.258;18.128;2024-03-08T02:17:45;3.53;;;3.42;;
10729;SDS011;5416;59.258;18.128;2024-03-08T02:20:12;3.10;;;3.00;;
10729;SDS011;5416;59.258;18.128;2024-03-08T02:22:40;3.30;;;3.20;;
10729;SDS011;5416;59.258;18.128;2024-03-08T02:25:08;3.92;;;3.83;;
10729;SDS011;5416;59.258;18.128;2024-03-08T02:27:35;4.20;;;4.10;;
10729;SDS011;5416;59.258;18.128;2024-03-08T02:30:03;3.80;;;3.70;;
10729;SDS011;5416;59.258;18.128;2024-03-08T02:32:30;3.58;;;3.47;;
10729;SDS011;5416;59.258;18.128;2024-03-08T02:34:58;4.32;;;4.22;;
10729;SDS011;5416;59.258;18.128;2024-03-08T02:37:25;4.25;;;4.15;;
10729;SDS011;5416;59.258;18.128;2024-03-08T02:39:55;3.97;;;3.88;;
10729;SDS011;5416;59.258;18.128;2024-03-08T02:42:22;3.75;;;3.65;;
10729;SDS011;5416;59.258;18.128;2024-03-08T02:44:49;2.97;;;2.88;;
10729;SDS011;5416;59.258;18.128;2024-03-08T02:47:16;3.65;;;3.55;;
10729;SDS011;5416;59.258;18.128;2024-03-08T02:49:43;3.55;;;3.45;;
10729;SDS011;5416;59.258;18.128;2024-03-08T02:52:10;3.03;;;2.92;;
10729;SDS011;5416;59.258;18.128;2024-03-08T02:54:37;3.60;;;3.50;;
10729;SDS011;5416;59.258;18.128;2024-03-08T02:57:06;3.13;;;3.03;;
10729;SDS011;5416;59.258;18.128;2024-03-08T02:59:33;3.05;;;2.95;;
10729;SDS011;5416;59.258;18.128;2024-03-08T03:02:00;3.15;;;3.05;;
10729;SDS011;5416;59.258;18.128;2024-03-08T03:04:27;3.13;;;3.03;;
10729;SDS011;5416;59.258;18.128;2024-03-08T03:06:54;3.55;;;3.45;;
10729;SDS011;5416;59.258;18.128;2024-03-08T03:09:23;2.95;;;2.85;;
10729;SDS011;5416;59.258;18.128;2024-03-08T03:11:52;3.63;;;3.53;;
10729;SDS011;5416;59.258;18.128;2024-03-08T03:14:21;2.95;;;2.85;;
10729;SDS011;5416;59.258;18.128;2024-03-08T03:16:48;3.27;;;3.17;;
10729;SDS011;5416;59.258;18.128;2024-03-08T03:19:15;3.20;;;3.10;;
10729;SDS011;5416;59.258;18.128;2024-03-08T03:21:42;2.90;;;2.80;;
10729;SDS011;5416;59.258;18.128;2024-03-08T03:24:09;3.30;;;3.20;;
10729;SDS011;5416;59.258;18.128;2024-03-08T03:26:37;2.90;;;2.80;;
10729;SDS011;5416;59.258;18.128;2024-03-08T03:29:05;3.08;;;2.97;;
10729;SDS011;5416;59.258;18.128;2024-03-08T03:31:34;2.85;;;2.75;;
10729;SDS011;5416;59.258;18.128;2024-03-08T03:34:02;2.92;;;2.83;;
10729;SDS011;5416;59.258;18.128;2024-03-08T03:36:30;3.55;;;3.45;;
10729;SDS011;5416;59.258;18.128;2024-03-08T03:38:57;3.20;;;3.10;;
10729;SDS011;5416;59.258;18.128;2024-03-08T03:41:35;2.95;;;2.85;;
10729;SDS011;5416;59.258;18.128;2024-03-08T03:44:03;2.92;;;2.83;;
10729;SDS011;5416;59.258;18.128;2024-03-08T03:46:31;2.90;;;2.80;;
10729;SDS011;5416;59.258;18.128;2024-03-08T03:49:00;3.60;;;3.50;;
10729;SDS011;5416;59.258;18.128;2024-03-08T03:51:28;2.70;;;2.60;;
10729;SDS011;5416;59.258;18.128;2024-03-08T03:53:55;2.88;;;2.78;;
10729;SDS011;5416;59.258;18.128;2024-03-08T03:56:24;2.60;;;2.50;;
10729;SDS011;5416;59.258;18.128;2024-03-08T03:58:52;2.88;;;2.78;;
10729;SDS011;5416;59.258;18.128;2024-03-08T04:01:19;3.53;;;3.42;;
10729;SDS011;5416;59.258;18.128;2024-03-08T04:03:46;2.97;;;2.88;;
10729;SDS011;5416;59.258;18.128;2024-03-08T04:06:15;3.50;;;3.40;;
10729;SDS011;5416;59.258;18.128;2024-03-08T04:08:42;3.00;;;2.90;;
10729;SDS011;5416;59.258;18.128;2024-03-08T04:11:09;3.22;;;3.13;;
10729;SDS011;5416;59.258;18.128;2024-03-08T04:13:36;2.90;;;2.80;;
10729;SDS011;5416;59.258;18.128;2024-03-08T04:16:04;2.83;;;2.72;;
10729;SDS011;5416;59.258;18.128;2024-03-08T04:18:33;3.80;;;3.70;;
10729;SDS011;5416;59.258;18.128;2024-03-08T04:21:03;2.80;;;2.70;;
10729;SDS011;5416;59.258;18.128;2024-03-08T04:23:33;3.70;;;3.60;;
10729;SDS011;5416;59.258;18.128;2024-03-08T04:26:01;2.78;;;2.67;;
10729;SDS011;5416;59.258;18.128;2024-03-08T04:28:30;2.90;;;2.80;;
10729;SDS011;5416;59.258;18.128;2024-03-08T04:30:57;3.25;;;3.15;;
10729;SDS011;5416;59.258;18.128;2024-03-08T04:33:25;2.80;;;2.70;;
10729;SDS011;5416;59.258;18.128;2024-03-08T04:35:53;3.45;;;3.35;;
10729;SDS011;5416;59.258;18.128;2024-03-08T04:38:20;2.90;;;2.80;;
10729;SDS011;5416;59.258;18.128;2024-03-08T04:40:48;3.13;;;3.03;;
10729;SDS011;5416;59.258;18.128;2024-03-08T04:43:16;3.00;;;2.90;;
10729;SDS011;5416;59.258;18.128;2024-03-08T04:45:45;3.77;;;3.67;;
10729;SDS011;5416;59.258;18.128;2024-03-08T04:48:13;4.18;;;4.07;;
10729;SDS011;5416;59.258;18.128;2024-03-08T04:50:40;3.28;;;3.17;;
10729;SDS011;5416;59.258;18.128;2024-03-08T04:53:07;2.92;;;2.83;;
10729;SDS011;5416;59.258;18.128;2024-03-08T04:55:35;3.50;;;3.40;;
10729;SDS011;5416;59.258;18.128;2024-03-08T04:58:04;2.88;;;2.78;;
10729;SDS011;5416;59.258;18.128;2024-03-08T05:00:32;3.13;;;3.03;;
10729;SDS011;5416;59.258;18.128;2024-03-08T05:02:59;2.95;;;2.85;;
10729;SDS011;5416;59.258;18.128;2024-03-08T05:05:26;2.90;;;2.80;;
10729;SDS011;5416;59.258;18.128;2024-03-08T05:07:55;3.30;;;3.20;;
10729;SDS011;5416;59.258;18.128;2024-03-08T05:10:22;2.75;;;2.65;;
10729;SDS011;5416;59.258;18.128;2024-03-08T05:12:49;2.90;;;2.80;;
10729;SDS011;5416;59.258;18.128;2024-03-08T05:15:18;2.73;;;2.63;;
10729;SDS011;5416;59.258;18.128;2024-03-08T05:17:46;3.00;;;2.90;;
10729;SDS011;5416;59.258;18.128;2024-03-08T05:20:13;3.05;;;2.95;;
10729;SDS011;5416;59.258;18.128;2024-03-08T05:22:42;3.50;;;3.40;;
10729;SDS011;5416;59.258;18.128;2024-03-08T05:25:09;3.00;;;2.90;;
10729;SDS011;5416;59.258;18.128;2024-03-08T05:27:37;3.17;;;3.08;;
10729;SDS011;5416;59.258;18.128;2024-03-08T05:30:04;2.60;;;2.50;;
10729;SDS011;5416;59.258;18.128;2024-03-08T05:32:33;2.83;;;2.73;;
10729;SDS011;5416;59.258;18.128;2024-03-08T05:35:00;3.30;;;3.20;;
10729;SDS011;5416;59.258;18.128;2024-03-08T05:37:32;2.63;;;2.53;;
10729;SDS011;5416;59.258;18.128;2024-03-08T05:39:59;2.85;;;2.75;;
10729;SDS011;5416;59.258;18.128;2024-03-08T05:42:26;2.55;;;2.45;;
10729;SDS011;5416;59.258;18.128;2024-03-08T05:44:55;2.70;;;2.60;;
10729;SDS011;5416;59.258;18.128;2024-03-08T05:47:23;3.13;;;3.03;;
10729;SDS011;5416;59.258;18.128;2024-03-08T05:49:52;2.50;;;2.40;;
10729;SDS011;5416;59.258;18.128;2024-03-08T05:52:19;2.90;;;2.80;;
10729;SDS011;5416;59.258;18.128;2024-03-08T05:54:46;2.70;;;2.60;;
10729;SDS011;5416;59.258;18.128;2024-03-08T05:57:13;2.90;;;2.80;;
10729;SDS011;5416;59.258;18.128;2024-03-08T05:59:42;3.25;;;3.15;;
10729;SDS011;5416;59.258;18.128;2024-03-08T06:02:09;2.58;;;2.47;;
10729;SDS011;5416;59.258;18.128;2024-03-08T06:04:36;3.13;;;3.03;;
10729;SDS011;5416;59.258;18.128;2024-03-08T06:07:05;3.55;;;3.45;;
10729;SDS011;5416;59.258;18.128;2024-03-08T06:09:37;2.50;;;2.40;;
10729;SDS011;5416;59.258;18.128;2024-03-08T06:12:04;3.15;;;3.05;;
10729;SDS011;5416;59.258;18.128;2024-03-08T06:14:32;3.53;;;3.42;;
10729;SDS011;5416;59.258;18.128;2024-03-08T06:16:59;2.97;;;2.88;;
10729;SDS011;5416;59.258;18.128;2024-03-08T06:19:27;3.17;;;3.07;;
10729;SDS011;5416;59.258;18.128;2024-03-08T06:21:54;3.15;;;3.05;;
10729;SDS011;5416;59.258;18.128;2024-03-08T06:24:22;2.75;;;2.65;;
10729;SDS011;5416;59.258;18.128;2024-03-08T06:26:49;3.38;;;3.28;;
10729;SDS011;5416;59.258;18.128;2024-03-08T06:29:18;3.80;;;3.70;;
10729;SDS011;5416;59.258;18.128;2024-03-08T06:31:45;3.58;;;3.47;;
10729;SDS011;5416;59.258;18.128;2024-03-08T06:34:12;3.30;;;3.20;;
10729;SDS011;5416;59.258;18.128;2024-03-08T06:36:40;3.20;;;3.10;;
10729;SDS011;5416;59.258;18.128;2024-03-08T06:39:08;3.65;;;3.55;;
10729;SDS011;5416;59.258;18.128;2024-03-08T06:41:36;3.22;;;3.13;;
10729;SDS011;5416;59.258;18.128;2024-03-08T06:44:04;3.20;;;3.10;;
10729;SDS011;5416;59.258;18.128;2024-03-08T06:46:32;3.38;;;3.28;;
10729;SDS011;5416;59.258;18.128;2024-03-08T06:49:00;3.42;;;3.33;;
10729;SDS011;5416;59.258;18.128;2024-03-08T06:51:28;3.00;;;2.90;;
10729;SDS011;5416;59.258;18.128;2024-03-08T06:53:55;3.55;;;3.45;;
10729;SDS011;5416;59.258;18.128;2024-03-08T06:56:22;3.47;;;3.38;;
10729;SDS011;5416;59.258;18.128;2024-03-08T06:58:51;3.13;;;3.03;;
10729;SDS011;5416;59.258;18.128;2024-03-08T07:01:19;3.30;;;3.20;;
10729;SDS011;5416;59.258;18.128;2024-03-08T07:03:46;3.70;;;3.60;;
10729;SDS011;5416;59.258;18.128;2024-03-08T07:06:13;2.80;;;2.70;;
10729;SDS011;5416;59.258;18.128;2024-03-08T07:08:40;2.90;;;2.80;;
10729;SDS011;5416;59.258;18.128;2024-03-08T07:11:07;3.90;;;3.80;;
10729;SDS011;5416;59.258;18.128;2024-03-08T07:13:34;3.70;;;3.60;;
10729;SDS011;5416;59.258;18.128;2024-03-08T07:16:05;3.45;;;3.35;;
10729;SDS011;5416;59.258;18.128;2024-03-08T07:18:33;3.40;;;3.30;;
10729;SDS011;5416;59.258;18.128;2024-03-08T07:21:01;3.97;;;3.87;;
10729;SDS011;5416;59.258;18.128;2024-03-08T07:23:28;3.60;;;3.50;;
10729;SDS011;5416;59.258;18.128;2024-03-08T07:26:28;4.32;;;4.22;;
10729;SDS011;5416;59.258;18.128;2024-03-08T07:28:55;4.18;;;4.07;;
10729;SDS011;5416;59.258;18.128;2024-03-08T07:31:23;3.85;;;3.75;;
10729;SDS011;5416;59.258;18.128;2024-03-08T07:33:59;3.95;;;3.85;;
10729;SDS011;5416;59.258;18.128;2024-03-08T07:36:28;4.38;;;4.28;;
10729;SDS011;5416;59.258;18.128;2024-03-08T07:38:55;3.90;;;3.80;;
10729;SDS011;5416;59.258;18.128;2024-03-08T07:41:22;3.78;;;3.67;;
10729;SDS011;5416;59.258;18.128;2024-03-08T07:43:49;4.40;;;4.30;;
10729;SDS011;5416;59.258;18.128;2024-03-08T07:46:17;3.92;;;3.83;;
10729;SDS011;5416;59.258;18.128;2024-03-08T07:48:46;4.00;;;3.90;;
10729;SDS011;5416;59.258;18.128;2024-03-08T07:51:15;4.13;;;4.03;;
10729;SDS011;5416;59.258;18.128;2024-03-08T07:53:42;4.20;;;4.10;;
10729;SDS011;5416;59.258;18.128;2024-03-08T07:56:10;4.85;;;4.65;;
10729;SDS011;5416;59.258;18.128;2024-03-08T07:58:38;3.90;;;3.80;;
10729;SDS011;5416;59.258;18.128;2024-03-08T08:01:06;3.87;;;3.77;;
10729;SDS011;5416;59.258;18.128;2024-03-08T08:03:34;3.97;;;3.88;;
10729;SDS011;5416;59.258;18.128;2024-03-08T08:06:04;4.15;;;4.05;;
10729;SDS011;5416;59.258;18.128;2024-03-08T08:08:32;4.10;;;4.00;;
10729;SDS011;5416;59.258;18.128;2024-03-08T08:10:59;4.00;;;3.90;;
10729;SDS011;5416;59.258;18.128;2024-03-08T08:13:27;4.00;;;3.90;;
10729;SDS011;5416;59.258;18.128;2024-03-08T08:15:57;4.10;;;4.00;;
10729;SDS011;5416;59.258;18.128;2024-03-08T08:18:24;3.50;;;3.40;;
10729;SDS011;5416;59.258;18.128;2024-03-08T08:20:51;3.90;;;3.80;;
10729;SDS011;5416;59.258;18.128;2024-03-08T08:23:20;3.95;;;3.85;;
10729;SDS011;5416;59.258;18.128;2024-03-08T08:25:47;3.85;;;3.75;;
10729;SDS011;5416;59.258;18.128;2024-03-08T08:28:15;3.92;;;3.83;;
10729;SDS011;5416;59.258;18.128;2024-03-08T08:30:42;3.97;;;3.88;;
10729;SDS011;5416;59.258;18.128;2024-03-08T08:33:09;4.03;;;3.93;;
10729;SDS011;5416;59.258;18.128;2024-03-08T08:35:38;3.38;;;3.28;;
10729;SDS011;5416;59.258;18.128;2024-03-08T08:38:05;3.75;;;3.65;;
10729;SDS011;5416;59.258;18.128;2024-03-08T08:40:34;4.03;;;3.93;;
10729;SDS011;5416;59.258;18.128;2024-03-08T08:43:02;4.00;;;3.90;;
10729;SDS011;5416;59.258;18.128;2024-03-08T08:45:29;3.85;;;3.75;;
10729;SDS011;5416;59.258;18.128;2024-03-08T08:47:57;4.00;;;3.90;;
10729;SDS011;5416;59.258;18.128;2024-03-08T08:50:25;3.97;;;3.88;;
10729;SDS011;5416;59.258;18.128;2024-03-08T08:52:53;3.70;;;3.60;;
10729;SDS011;5416;59.258;18.128;2024-03-08T08:55:20;3.65;;;3.55;;
10729;SDS011;5416;59.258;18.128;2024-03-08T08:57:51;3.70;;;3.60;;
10729;SDS011;5416;59.258;18.128;2024-03-08T09:00:18;3.73;;;3.63;;
10729;SDS011;5416;59.258;18.128;2024-03-08T09:02:46;4.00;;;3.90;;
10729;SDS011;5416;59.258;18.128;2024-03-08T09:05:14;3.70;;;3.60;;
10729;SDS011;5416;59.258;18.128;2024-03-08T09:07:42;3.33;;;3.22;;
10729;SDS011;5416;59.258;18.128;2024-03-08T09:10:10;3.70;;;3.60;;
10729;SDS011;5416;59.258;18.128;2024-03-08T09:12:39;3.70;;;3.60;;
10729;SDS011;5416;59.258;18.128;2024-03-08T09:15:08;3.72;;;3.63;;
10729;SDS011;5416;59.258;18.128;2024-03-08T09:17:36;3.72;;;3.63;;
10729;SDS011;5416;59.258;18.128;2024-03-08T09:20:05;4.30;;;4.20;;
10729;SDS011;5416;59.258;18.128;2024-03-08T09:22:33;3.80;;;3.70;;
10729;SDS011;5416;59.258;18.128;2024-03-08T09:25:00;3.80;;;3.70;;
10729;SDS011;5416;59.258;18.128;2024-03-08T09:27:30;4.00;;;3.90;;
10729;SDS011;5416;59.258;18.128;2024-03-08T09:29:57;3.65;;;3.55;;
10729;SDS011;5416;59.258;18.128;2024-03-08T09:32:25;3.88;;;3.78;;
10729;SDS011;5416;59.258;18.128;2024-03-08T09:34:52;4.10;;;4.00;;
10729;SDS011;5416;59.258;18.128;2024-03-08T09:37:21;3.88;;;3.78;;
10729;SDS011;5416;59.258;18.128;2024-03-08T09:39:48;4.95;;;4.75;;
10729;SDS011;5416;59.258;18.128;2024-03-08T09:42:15;4.13;;;4.03;;
10729;SDS011;5416;59.258;18.128;2024-03-08T09:44:44;3.70;;;3.60;;
10729;SDS011;5416;59.258;18.128;2024-03-08T09:47:12;3.72;;;3.63;;
10729;SDS011;5416;59.258;18.128;2024-03-08T09:49:41;4.00;;;3.90;;
10729;SDS011;5416;59.258;18.128;2024-03-08T09:52:09;4.43;;;4.32;;
10729;SDS011;5416;59.258;18.128;2024-03-08T09:54:37;3.88;;;3.78;;
10729;SDS011;5416;59.258;18.128;2024-03-08T09:57:05;3.70;;;3.60;;
10729;SDS011;5416;59.258;18.128;2024-03-08T09:59:34;3.53;;;3.43;;
10729;SDS011;5416;59.258;18.128;2024-03-08T10:02:15;3.95;;;3.85;;
10729;SDS011;5416;59.258;18.128;2024-03-08T10:04:44;4.03;;;3.93;;
10729;SDS011;5416;59.258;18.128;2024-03-08T10:07:15;3.35;;;3.25;;
10729;SDS011;5416;59.258;18.128;2024-03-08T10:09:42;4.70;;;4.50;;
10729;SDS011;5416;59.258;18.128;2024-03-08T10:12:15;3.80;;;3.70;;
10729;SDS011;5416;59.258;18.128;2024-03-08T10:14:42;3.72;;;3.63;;
10729;SDS011;5416;59.258;18.128;2024-03-08T10:17:09;3.67;;;3.58;;
10729;SDS011;5416;59.258;18.128;2024-03-08T10:19:36;3.80;;;3.70;;
10729;SDS011;5416;59.258;18.128;2024-03-08T10:22:05;3.33;;;3.22;;
10729;SDS011;5416;59.258;18.128;2024-03-08T10:24:32;3.88;;;3.78;;
10729;SDS011;5416;59.258;18.128;2024-03-08T10:27:00;3.97;;;3.88;;
10729;SDS011;5416;59.258;18.128;2024-03-08T10:29:29;3.53;;;3.42;;
10729;SDS011;5416;59.258;18.128;2024-03-08T10:31:56;3.50;;;3.40;;
10729;SDS011;5416;59.258;18.128;2024-03-08T10:34:24;3.45;;;3.35;;
10729;SDS011;5416;59.258;18.128;2024-03-08T10:36:51;3.60;;;3.50;;
10729;SDS011;5416;59.258;18.128;2024-03-08T10:39:22;3.63;;;3.53;;
10729;SDS011;5416;59.258;18.128;2024-03-08T10:41:52;3.85;;;3.75;;
10729;SDS011;5416;59.258;18.128;2024-03-08T10:44:24;3.67;;;3.58;;
10729;SDS011;5416;59.258;18.128;2024-03-08T10:46:59;3.75;;;3.65;;
10729;SDS011;5416;59.258;18.128;2024-03-08T10:49:30;3.95;;;3.85;;
10729;SDS011;5416;59.258;18.128;2024-03-08T10:51:59;4.43;;;4.32;;
10729;SDS011;5416;59.258;18.128;2024-03-08T10:54:29;4.20;;;4.10;;
10729;SDS011;5416;59.258;18.128;2024-03-08T10:56:58;3.83;;;3.72;;
10729;SDS011;5416;59.258;18.128;2024-03-08T10:59:28;3.25;;;3.15;;
10729;SDS011;5416;59.258;18.128;2024-03-08T11:01:55;4.00;;;3.90;;
10729;SDS011;5416;59.258;18.128;2024-03-08T11:04:22;4.22;;;4.13;;
10729;SDS011;5416;59.258;18.128;2024-03-08T11:06:50;4.13;;;4.03;;
10729;SDS011;5416;59.258;18.128;2024-03-08T11:09:30;4.15;;;4.05;;
10729;SDS011;5416;59.258;18.128;2024-03-08T11:14:44;3.70;;;3.60;;
10729;SDS011;5416;59.258;18.128;2024-03-08T11:17:14;4.13;;;4.03;;
10729;SDS011;5416;59.258;18.128;2024-03-08T11:19:45;4.20;;;4.10;;
10729;SDS011;5416;59.258;18.128;2024-03-08T11:22:20;3.95;;;3.85;;
10729;SDS011;5416;59.258;18.128;2024-03-08T11:24:50;4.18;;;4.07;;
10729;SDS011;5416;59.258;18.128;2024-03-08T11:27:17;4.25;;;4.15;;
10729;SDS011;5416;59.258;18.128;2024-03-08T11:29:45;4.63;;;4.47;;
10729;SDS011;5416;59.258;18.128;2024-03-08T11:32:27;3.75;;;3.65;;
10729;SDS011;5416;59.258;18.128;2024-03-08T11:34:54;4.05;;;3.95;;
10729;SDS011;5416;59.258;18.128;2024-03-08T11:37:21;3.72;;;3.63;;
10729;SDS011;5416;59.258;18.128;2024-03-08T11:39:51;3.80;;;3.70;;
10729;SDS011;5416;59.258;18.128;2024-03-08T11:42:19;4.00;;;3.90;;
10729;SDS011;5416;59.258;18.128;2024-03-08T11:44:47;3.92;;;3.83;;
10729;SDS011;5416;59.258;18.128;2024-03-08T11:47:15;3.90;;;3.80;;
10729;SDS011;5416;59.258;18.128;2024-03-08T11:49:42;4.10;;;4.00;;
10729;SDS011;5416;59.258;18.128;2024-03-08T11:52:11;4.10;;;4.00;;
10729;SDS011;5416;59.258;18.128;2024-03-08T11:54:39;3.95;;;3.85;;
10729;SDS011;5416;59.258;18.128;2024-03-08T11:57:07;3.83;;;3.72;;
10729;SDS011;5416;59.258;18.128;2024-03-08T11:59:35;4.00;;;3.90;;
10729;SDS011;5416;59.258;18.128;2024-03-08T12:02:02;3.50;;;3.40;;
10729;SDS011;5416;59.258;18.128;2024-03-08T12:04:30;4.15;;;4.00;;
10729;SDS011;5416;59.258;18.128;2024-03-08T12:06:59;4.10;;;4.00;;
10729;SDS011;5416;59.258;18.128;2024-03-08T12:09:27;4.00;;;3.90;;
10729;SDS011;5416;59.258;18.128;2024-03-08T12:11:54;3.90;;;3.80;;
10729;SDS011;5416;59.258;18.128;2024-03-08T12:14:23;4.30;;;4.20;;
10729;SDS011;5416;59.258;18.128;2024-03-08T12:16:50;4.93;;;4.73;;
10729;SDS011;5416;59.258;18.128;2024-03-08T12:19:18;4.40;;;4.30;;
10729;SDS011;5416;59.258;18.128;2024-03-08T12:21:45;4.00;;;3.90;;
10729;SDS011;5416;59.258;18.128;2024-03-08T12:24:14;4.50;;;4.40;;
10729;SDS011;5416;59.258;18.128;2024-03-08T12:26:41;4.05;;;3.95;;
10729;SDS011;5416;59.258;18.128;2024-03-08T12:29:15;4.45;;;4.35;;
10729;SDS011;5416;59.258;18.128;2024-03-08T12:31:46;4.40;;;4.30;;
10729;SDS011;5416;59.258;18.128;2024-03-08T12:34:13;3.92;;;3.83;;
10729;SDS011;5416;59.258;18.128;2024-03-08T12:36:44;4.00;;;3.90;;
10729;SDS011;5416;59.258;18.128;2024-03-08T12:39:13;4.35;;;4.25;;
10729;SDS011;5416;59.258;18.128;2024-03-08T12:41:41;4.05;;;3.95;;
10729;SDS011;5416;59.258;18.128;2024-03-08T12:44:08;4.13;;;4.03;;
10729;SDS011;5416;59.258;18.128;2024-03-08T12:46:37;4.18;;;4.07;;
10729;SDS011;5416;59.258;18.128;2024-03-08T12:49:08;3.70;;;3.60;;
10729;SDS011;5416;59.258;18.128;2024-03-08T12:51:37;3.85;;;3.75;;
10729;SDS011;5416;59.258;18.128;2024-03-08T12:54:04;4.00;;;3.90;;
10729;SDS011;5416;59.258;18.128;2024-03-08T12:56:32;4.22;;;4.13;;
10729;SDS011;5416;59.258;18.128;2024-03-08T12:59:00;4.15;;;4.05;;
10729;SDS011;5416;59.258;18.128;2024-03-08T13:01:28;4.03;;;3.92;;
10729;SDS011;5416;59.258;18.128;2024-03-08T13:03:57;4.22;;;4.13;;
10729;SDS011;5416;59.258;18.128;2024-03-08T13:06:26;4.10;;;4.00;;
10729;SDS011;5416;59.258;18.128;2024-03-08T13:08:54;4.70;;;4.50;;
10729;SDS011;5416;59.258;18.128;2024-03-08T13:11:21;4.18;;;4.07;;
10729;SDS011;5416;59.258;18.128;2024-03-08T13:13:49;3.90;;;3.80;;
10729;SDS011;5416;59.258;18.128;2024-03-08T13:16:17;3.63;;;3.53;;
10729;SDS011;5416;59.258;18.128;2024-03-08T13:18:44;4.20;;;4.10;;
10729;SDS011;5416;59.258;18.128;2024-03-08T13:21:13;4.32;;;4.22;;
10729;SDS011;5416;59.258;18.128;2024-03-08T13:23:44;3.67;;;3.58;;
10729;SDS011;5416;59.258;18.128;2024-03-08T13:26:14;4.47;;;4.38;;
10729;SDS011;5416;59.258;18.128;2024-03-08T13:28:41;4.03;;;3.93;;
10729;SDS011;5416;59.258;18.128;2024-03-08T13:31:08;4.32;;;4.22;;
10729;SDS011;5416;59.258;18.128;2024-03-08T13:33:36;4.07;;;3.97;;
10729;SDS011;5416;59.258;18.128;2024-03-08T13:36:04;4.10;;;4.00;;
10729;SDS011;5416;59.258;18.128;2024-03-08T13:38:39;3.60;;;3.50;;
10729;SDS011;5416;59.258;18.128;2024-03-08T13:41:09;4.15;;;4.05;;
10729;SDS011;5416;59.258;18.128;2024-03-08T13:43:39;4.32;;;4.22;;
10729;SDS011;5416;59.258;18.128;2024-03-08T13:46:06;3.97;;;3.88;;
10729;SDS011;5416;59.258;18.128;2024-03-08T13:48:35;4.18;;;4.07;;
10729;SDS011;5416;59.258;18.128;2024-03-08T13:51:03;4.20;;;4.10;;
10729;SDS011;5416;59.258;18.128;2024-03-08T13:53:31;4.20;;;4.10;;
10729;SDS011;5416;59.258;18.128;2024-03-08T13:55:59;4.00;;;3.90;;
10729;SDS011;5416;59.258;18.128;2024-03-08T13:58:28;4.10;;;4.00;;
10729;SDS011;5416;59.258;18.128;2024-03-08T14:00:55;3.70;;;3.60;;
10729;SDS011;5416;59.258;18.128;2024-03-08T14:03:22;3.55;;;3.45;;
10729;SDS011;5416;59.258;18.128;2024-03-08T14:05:49;3.33;;;3.23;;
10729;SDS011;5416;59.258;18.128;2024-03-08T14:08:17;3.70;;;3.60;;
10729;SDS011;5416;59.258;18.128;2024-03-08T14:10:44;4.18;;;4.07;;
10729;SDS011;5416;59.258;18.128;2024-03-08T14:13:12;3.65;;;3.55;;
10729;SDS011;5416;59.258;18.128;2024-03-08T14:15:42;3.47;;;3.38;;
10729;SDS011;5416;59.258;18.128;2024-03-08T14:18:11;3.63;;;3.53;;
10729;SDS011;5416;59.258;18.128;2024-03-08T14:20:39;3.60;;;3.50;;
10729;SDS011;5416;59.258;18.128;2024-03-08T14:23:07;3.58;;;3.47;;
10729;SDS011;5416;59.258;18.128;2024-03-08T14:25:34;3.53;;;3.42;;
10729;SDS011;5416;59.258;18.128;2024-03-08T14:28:02;3.73;;;3.63;;
10729;SDS011;5416;59.258;18.128;2024-03-08T14:30:32;4.10;;;4.00;;
10729;SDS011;5416;59.258;18.128;2024-03-08T14:33:01;3.50;;;3.40;;
10729;SDS011;5416;59.258;18.128;2024-03-08T14:35:30;3.78;;;3.67;;
10729;SDS011;5416;59.258;18.128;2024-03-08T14:37:57;3.47;;;3.38;;
10729;SDS011;5416;59.258;18.128;2024-03-08T14:40:25;3.53;;;3.42;;
10729;SDS011;5416;59.258;18.128;2024-03-08T14:42:52;3.70;;;3.60;;
10729;SDS011;5416;59.258;18.128;2024-03-08T14:45:21;3.70;;;3.60;;
10729;SDS011;5416;59.258;18.128;2024-03-08T14:47:49;3.72;;;3.63;;
10729;SDS011;5416;59.258;18.128;2024-03-08T14:50:17;3.88;;;3.78;;
10729;SDS011;5416;59.258;18.128;2024-03-08T14:52:45;3.95;;;3.85;;
10729;SDS011;5416;59.258;18.128;2024-03-08T14:55:13;3.40;;;3.30;;
10729;SDS011;5416;59.258;18.128;2024-03-08T14:57:40;3.23;;;3.13;;